createdAt,value
2022-08-03T00:00:33.338Z,17.51
2022-08-03T00:03:04.703Z,17.04
2022-08-03T00:05:35.672Z,16.76
2022-08-03T00:08:03.738Z,16.54
2022-08-03T00:10:33.030Z,16.31
2022-08-03T00:13:01.084Z,16.18
2022-08-03T00:15:28.979Z,16.20
2022-08-03T00:17:56.877Z,16.28
2022-08-03T00:20:25.234Z,16.23
2022-08-03T00:22:53.104Z,16.05
2022-08-03T00:25:21.030Z,15.82
2022-08-03T00:27:49.038Z,15.58
2022-08-03T00:30:18.938Z,15.42
2022-08-03T00:32:47.922Z,15.36
2022-08-03T00:35:35.110Z,15.28
2022-08-03T00:38:04.677Z,15.32
2022-08-03T00:40:32.832Z,15.28
2022-08-03T00:43:06.692Z,15.15
2022-08-03T00:45:37.622Z,14.95
2022-08-03T00:48:07.372Z,14.84
2022-08-03T00:50:55.343Z,14.79
2022-08-03T00:53:23.235Z,14.69
2022-08-03T00:55:51.350Z,14.61
2022-08-03T00:58:19.615Z,14.53
2022-08-03T01:00:47.549Z,14.47
2022-08-03T01:03:15.533Z,14.49
2022-08-03T01:06:03.238Z,14.47
2022-08-03T01:08:44.192Z,14.51
2022-08-03T01:11:59.997Z,14.49
2022-08-03T01:14:58.568Z,14.66
2022-08-03T01:17:34.806Z,14.66
2022-08-03T01:20:13.817Z,14.66
2022-08-03T01:22:59.895Z,14.59
2022-08-03T01:25:40.321Z,14.48
2022-08-03T01:28:26.845Z,14.41
2022-08-03T01:30:59.265Z,14.35
2022-08-03T01:33:37.302Z,14.30
2022-08-03T01:36:09.846Z,14.25
2022-08-03T01:38:44.019Z,14.24
2022-08-03T01:41:38.007Z,14.36
2022-08-03T01:44:29.852Z,14.44
2022-08-03T01:47:00.790Z,14.49
2022-08-03T01:49:32.098Z,14.49
2022-08-03T01:52:04.852Z,14.48
2022-08-03T01:54:42.525Z,14.51
2022-08-03T01:57:11.829Z,14.61
2022-08-03T01:59:41.709Z,14.63
2022-08-03T02:02:15.432Z,14.63
2022-08-03T02:05:01.654Z,14.52
2022-08-03T02:07:31.068Z,14.45
2022-08-03T02:10:00.311Z,14.54
2022-08-03T02:12:31.895Z,14.72
2022-08-03T02:15:01.528Z,15.01
2022-08-03T02:17:38.954Z,15.01
2022-08-03T02:20:13.574Z,14.86
2022-08-03T02:22:43.504Z,14.75
2022-08-03T02:25:13.001Z,14.72
2022-08-03T02:27:52.839Z,14.68
2022-08-03T02:30:23.718Z,14.58
2022-08-03T02:32:58.002Z,14.53
2022-08-03T02:35:29.798Z,14.51
2022-08-03T02:38:02.485Z,14.52
2022-08-03T02:40:32.386Z,14.65
2022-08-03T02:43:07.719Z,14.67
2022-08-03T02:45:45.371Z,14.62
2022-08-03T02:48:18.610Z,14.54
2022-08-03T02:50:48.310Z,14.43
2022-08-03T02:53:17.646Z,14.36
2022-08-03T02:55:47.305Z,14.34
2022-08-03T02:58:19.812Z,14.37
2022-08-03T03:00:48.695Z,14.43
2022-08-03T03:03:16.699Z,14.39
2022-08-03T03:05:55.754Z,14.30
2022-08-03T03:08:28.697Z,14.22
2022-08-03T03:11:01.007Z,14.33
2022-08-03T03:13:31.196Z,14.39
2022-08-03T03:16:02.579Z,14.40
2022-08-03T03:18:33.346Z,14.45
2022-08-03T03:21:03.662Z,14.48
2022-08-03T03:23:34.205Z,14.38
2022-08-03T03:26:02.641Z,14.44
2022-08-03T03:28:31.976Z,14.55
2022-08-03T03:31:01.078Z,14.65
2022-08-03T03:33:29.127Z,14.85
2022-08-03T03:35:58.662Z,14.99
2022-08-03T03:38:26.939Z,15.00
2022-08-03T03:40:55.209Z,15.05
2022-08-03T03:43:24.007Z,15.19
2022-08-03T03:45:53.767Z,15.35
2022-08-03T03:48:21.917Z,15.26
2022-08-03T03:50:50.676Z,15.17
2022-08-03T03:53:19.021Z,15.26
2022-08-03T03:56:01.673Z,15.29
2022-08-03T03:58:32.734Z,15.17
2022-08-03T04:01:01.141Z,15.10
2022-08-03T04:03:29.549Z,15.15
2022-08-03T04:06:17.532Z,15.26
2022-08-03T04:09:21.226Z,15.41
2022-08-03T04:11:51.809Z,15.51
2022-08-03T04:14:33.889Z,15.61
2022-08-03T04:17:05.740Z,15.77
2022-08-03T04:19:38.836Z,15.76
2022-08-03T04:22:10.926Z,15.76
2022-08-03T04:24:47.351Z,15.74
2022-08-03T04:27:18.559Z,15.74
2022-08-03T04:29:49.710Z,15.77
2022-08-03T04:32:18.369Z,15.98
2022-08-03T04:34:47.397Z,16.50
2022-08-03T04:37:23.897Z,17.17
2022-08-03T04:39:54.612Z,17.71
2022-08-03T04:42:26.353Z,17.75
2022-08-03T04:45:01.120Z,17.60
2022-08-03T04:47:33.320Z,17.80
2022-08-03T04:50:03.063Z,18.18
2022-08-03T04:52:31.592Z,18.59
2022-08-03T04:54:59.548Z,18.72
2022-08-03T04:57:27.494Z,18.71
2022-08-03T05:00:02.188Z,18.60
2022-08-03T05:02:31.955Z,18.39
2022-08-03T05:05:00.329Z,18.21
2022-08-03T05:07:36.175Z,18.12
2022-08-03T05:10:16.047Z,18.06
2022-08-03T05:12:47.703Z,18.29
2022-08-03T05:15:16.056Z,18.84
2022-08-03T05:17:44.179Z,19.14
2022-08-03T05:20:12.789Z,19.15
2022-08-03T05:22:40.822Z,19.24
2022-08-03T05:25:08.979Z,19.55
2022-08-03T05:27:36.993Z,19.93
2022-08-03T05:30:30.669Z,19.98
2022-08-03T05:32:53.630Z,20.02
2022-08-03T05:36:02.640Z,19.94
2022-08-03T05:38:09.663Z,20.08
2022-08-03T05:40:38.620Z,20.37
2022-08-03T05:43:15.001Z,20.53
2022-08-03T05:45:43.472Z,20.41
2022-08-03T05:48:11.415Z,20.34
2022-08-03T05:50:42.800Z,20.30
2022-08-03T05:53:10.891Z,20.35
2022-08-03T05:55:38.850Z,20.49
2022-08-03T05:58:06.891Z,20.53
2022-08-03T06:00:34.853Z,20.48
2022-08-03T06:03:02.836Z,20.49
2022-08-03T06:05:31.522Z,20.63
2022-08-03T06:07:59.418Z,20.72
2022-08-03T06:10:35.506Z,20.74
2022-08-03T06:13:05.602Z,20.74
2022-08-03T06:15:35.512Z,20.86
2022-08-03T06:18:03.616Z,21.04
2022-08-03T06:20:31.547Z,21.23
2022-08-03T06:23:01.366Z,21.22
2022-08-03T06:25:29.512Z,21.13
2022-08-03T06:27:59.582Z,21.20
2022-08-03T06:30:27.583Z,21.35
2022-08-03T06:32:55.533Z,21.54
2022-08-03T06:35:23.644Z,21.75
2022-08-03T06:37:52.811Z,22.08
2022-08-03T06:40:32.240Z,22.25
2022-08-03T06:43:02.349Z,22.10
2022-08-03T06:45:32.260Z,21.97
2022-08-03T06:48:11.766Z,21.89
2022-08-03T06:50:42.108Z,21.88
2022-08-03T06:53:11.390Z,21.94
2022-08-03T06:55:54.209Z,22.04
2022-08-03T06:58:24.252Z,22.13
2022-08-03T07:00:52.737Z,22.26
2022-08-03T07:03:21.025Z,22.32
2022-08-03T07:05:50.994Z,22.30
2022-08-03T07:08:19.298Z,22.26
2022-08-03T07:11:02.098Z,22.17
2022-08-03T07:13:30.170Z,22.15
2022-08-03T07:15:58.147Z,22.17
2022-08-03T07:18:29.686Z,22.26
2022-08-03T07:20:58.691Z,22.35
2022-08-03T07:23:26.682Z,22.47
2022-08-03T07:25:54.906Z,22.50
2022-08-03T07:28:22.889Z,22.49
2022-08-03T07:30:50.948Z,22.63
2022-08-03T07:33:18.945Z,22.62
2022-08-03T07:35:46.864Z,22.67
2022-08-03T07:38:14.786Z,22.82
2022-08-03T07:40:46.168Z,22.99
2022-08-03T07:43:14.456Z,23.09
2022-08-03T07:45:42.477Z,23.17
2022-08-03T07:48:12.623Z,23.19
2022-08-03T07:50:40.778Z,23.14
2022-08-03T07:53:08.877Z,23.12
2022-08-03T07:55:36.744Z,23.08
2022-08-03T07:58:12.624Z,23.08
2022-08-03T08:00:40.740Z,23.13
2022-08-03T08:03:09.050Z,23.22
2022-08-03T08:05:37.705Z,23.27
2022-08-03T08:08:05.948Z,23.18
2022-08-03T08:10:35.236Z,22.99
2022-08-03T08:13:04.881Z,22.89
2022-08-03T08:15:33.038Z,23.02
2022-08-03T08:18:02.552Z,23.16
2022-08-03T08:20:37.961Z,23.26
2022-08-03T08:23:19.275Z,23.40
2022-08-03T08:25:56.973Z,23.68
2022-08-03T08:28:32.303Z,23.95
2022-08-03T08:31:01.969Z,24.01
2022-08-03T08:33:42.486Z,24.09
2022-08-03T08:36:18.419Z,24.24
2022-08-03T08:38:46.490Z,24.42
2022-08-03T08:41:15.743Z,24.48
2022-08-03T08:43:43.878Z,24.36
2022-08-03T08:46:23.222Z,24.20
2022-08-03T08:48:54.160Z,24.08
2022-08-03T08:51:23.157Z,24.13
2022-08-03T08:53:54.003Z,24.13
2022-08-03T08:56:25.775Z,24.20
2022-08-03T08:58:58.504Z,24.45
2022-08-03T09:01:27.753Z,24.70
2022-08-03T09:03:55.740Z,24.88
2022-08-03T09:06:24.229Z,25.06
2022-08-03T09:08:52.265Z,25.18
2022-08-03T09:11:52.645Z,25.21
2022-08-03T09:14:34.432Z,25.27
2022-08-03T09:17:04.817Z,25.45
2022-08-03T09:19:34.884Z,25.60
2022-08-03T09:22:14.444Z,25.59
2022-08-03T09:25:22.661Z,25.37
2022-08-03T09:27:49.009Z,25.12
2022-08-03T09:30:33.391Z,25.01
2022-08-03T09:33:05.504Z,24.95
2022-08-03T09:35:53.028Z,25.00
2022-08-03T09:38:24.348Z,24.97
2022-08-03T09:40:58.843Z,24.96
2022-08-03T09:43:48.517Z,25.17
2022-08-03T09:46:18.807Z,25.59
2022-08-03T09:48:46.800Z,25.88
2022-08-03T09:51:32.755Z,26.03
2022-08-03T09:54:15.047Z,25.99
2022-08-03T09:56:47.413Z,25.84
2022-08-03T09:59:27.908Z,25.86
2022-08-03T10:01:57.236Z,25.91
2022-08-03T10:04:25.946Z,26.07
2022-08-03T10:07:09.491Z,26.20
2022-08-03T10:09:38.234Z,26.30
2022-08-03T10:12:13.966Z,26.29
2022-08-03T10:14:45.431Z,26.20
2022-08-03T10:17:13.889Z,26.19
2022-08-03T10:19:42.263Z,26.07
2022-08-03T10:22:22.793Z,25.99
2022-08-03T10:24:59.430Z,26.20
2022-08-03T10:27:32.926Z,26.51
2022-08-03T10:30:05.144Z,26.95
2022-08-03T10:32:43.229Z,27.14
2022-08-03T10:35:23.547Z,27.25
2022-08-03T10:38:23.112Z,27.40
2022-08-03T10:40:58.956Z,27.61
2022-08-03T10:43:49.254Z,27.73
2022-08-03T10:46:20.807Z,27.76
2022-08-03T10:48:51.820Z,27.92
2022-08-03T10:51:21.203Z,28.04
2022-08-03T10:53:54.490Z,27.81
2022-08-03T10:56:50.786Z,27.73
2022-08-03T10:59:46.709Z,27.53
2022-08-03T11:02:15.459Z,27.57
2022-08-03T11:04:45.347Z,27.70
2022-08-03T11:07:36.020Z,27.66
2022-08-03T11:10:07.766Z,27.49
2022-08-03T11:12:38.639Z,27.47
2022-08-03T11:15:08.889Z,27.56
2022-08-03T11:17:46.285Z,27.84
2022-08-03T11:20:57.642Z,28.23
2022-08-03T11:24:04.442Z,28.51
2022-08-03T11:26:30.263Z,28.63
2022-08-03T11:29:28.703Z,28.84
2022-08-03T11:31:56.604Z,28.93
2022-08-03T11:34:25.191Z,28.67
2022-08-03T11:37:22.965Z,28.43
2022-08-03T11:39:54.730Z,28.46
2022-08-03T11:42:22.963Z,28.67
2022-08-03T11:44:52.892Z,28.89
2022-08-03T11:47:21.947Z,29.08
2022-08-03T11:49:52.133Z,29.28
2022-08-03T11:52:26.674Z,29.51
2022-08-03T11:54:56.528Z,29.76
2022-08-03T11:59:10.731Z,30.07
2022-08-03T12:00:21.879Z,30.47
2022-08-03T12:03:13.960Z,30.65
2022-08-03T12:05:51.964Z,30.85
2022-08-03T12:08:32.370Z,30.90
2022-08-03T12:11:04.632Z,31.05
2022-08-03T12:14:44.123Z,31.26
2022-08-03T12:16:28.897Z,31.16
2022-08-03T12:18:59.437Z,30.89
2022-08-03T12:21:28.118Z,30.80
2022-08-03T12:24:05.998Z,30.90
2022-08-03T12:26:58.988Z,31.01
2022-08-03T12:29:28.910Z,31.18
2022-08-03T12:31:57.190Z,31.13
2022-08-03T12:34:47.226Z,31.10
2022-08-03T12:37:29.005Z,30.57
2022-08-03T12:40:10.104Z,30.42
2022-08-03T12:42:39.937Z,30.28
2022-08-03T12:45:21.250Z,30.44
2022-08-03T12:47:52.726Z,30.86
2022-08-03T12:50:27.235Z,31.18
2022-08-03T12:52:56.058Z,31.45
2022-08-03T12:55:24.775Z,31.78
2022-08-03T12:57:52.680Z,31.99
2022-08-03T13:00:21.381Z,32.08
2022-08-03T13:03:26.516Z,31.96
2022-08-03T13:05:48.294Z,31.66
2022-08-03T13:08:23.539Z,31.57
2022-08-03T13:10:52.035Z,31.88
2022-08-03T13:13:38.407Z,31.98
2022-08-03T13:16:06.396Z,32.20
2022-08-03T13:18:34.338Z,32.16
2022-08-03T13:21:02.423Z,31.94
2022-08-03T13:23:30.487Z,31.74
2022-08-03T13:25:58.524Z,31.33
2022-08-03T13:28:26.533Z,31.04
2022-08-03T13:30:54.908Z,30.74
2022-08-03T13:33:22.937Z,30.39
2022-08-03T13:35:50.969Z,30.06
2022-08-03T13:38:18.994Z,29.82
2022-08-03T13:40:51.987Z,29.84
2022-08-03T13:43:21.597Z,30.13
2022-08-03T13:45:53.533Z,30.63
2022-08-03T13:48:37.728Z,30.79
2022-08-03T13:51:21.596Z,31.18
2022-08-03T13:53:51.591Z,31.58
2022-08-03T13:56:19.552Z,31.96
2022-08-03T13:58:47.476Z,32.36
2022-08-03T14:01:15.666Z,32.74
2022-08-03T14:03:43.729Z,32.95
2022-08-03T14:06:11.692Z,33.08
2022-08-03T14:08:39.561Z,33.33
2022-08-03T14:11:07.479Z,33.57
2022-08-03T14:13:35.353Z,33.87
2022-08-03T14:16:03.940Z,33.94
2022-08-03T14:18:33.536Z,33.80
2022-08-03T14:21:06.447Z,33.97
2022-08-03T14:23:36.083Z,34.19
2022-08-03T14:26:07.941Z,34.25
2022-08-03T14:28:36.313Z,34.02
2022-08-03T14:31:08.373Z,33.86
2022-08-03T14:33:53.061Z,33.87
2022-08-03T14:36:21.048Z,33.97
2022-08-03T14:38:49.173Z,33.91
2022-08-03T14:41:20.047Z,34.10
2022-08-03T14:44:01.346Z,34.02
2022-08-03T14:46:31.380Z,34.15
2022-08-03T14:49:02.650Z,34.22
2022-08-03T14:51:51.230Z,34.28
2022-08-03T14:54:22.830Z,34.10
2022-08-03T14:56:51.176Z,33.99
2022-08-03T14:59:19.271Z,34.02
2022-08-03T15:02:02.696Z,34.21
2022-08-03T15:04:34.804Z,34.03
2022-08-03T15:07:02.940Z,33.88
2022-08-03T15:09:31.028Z,33.86
2022-08-03T15:11:59.691Z,33.89
2022-08-03T15:14:28.327Z,33.85
2022-08-03T15:17:01.140Z,33.95
2022-08-03T15:20:03.743Z,33.94
2022-08-03T15:22:18.981Z,34.00
2022-08-03T15:24:48.831Z,34.08
2022-08-03T15:27:16.890Z,34.17
2022-08-03T15:30:07.284Z,34.29
2022-08-03T15:32:34.070Z,34.41
2022-08-03T15:35:02.268Z,34.47
2022-08-03T15:37:33.234Z,34.35
2022-08-03T15:40:01.349Z,34.22
2022-08-03T15:42:30.682Z,34.21
2022-08-03T15:44:58.903Z,34.25
2022-08-03T15:47:27.492Z,34.15
2022-08-03T15:49:55.836Z,34.14
2022-08-03T15:52:24.016Z,33.83
2022-08-03T15:54:52.081Z,33.65
2022-08-03T15:57:20.700Z,33.63
2022-08-03T15:59:49.041Z,33.53
2022-08-03T16:02:17.075Z,33.47
2022-08-03T16:04:45.042Z,33.56
2022-08-03T16:07:15.920Z,33.74
2022-08-03T16:09:44.310Z,33.81
2022-08-03T16:12:16.272Z,33.71
2022-08-03T16:14:53.781Z,33.58
2022-08-03T16:17:22.640Z,33.60
2022-08-03T16:19:54.830Z,33.66
2022-08-03T16:22:24.192Z,33.64
2022-08-03T16:24:53.536Z,33.56
2022-08-03T16:27:58.151Z,33.60
2022-08-03T16:30:12.855Z,33.67
2022-08-03T16:32:40.825Z,33.60
2022-08-03T16:35:09.323Z,33.34
2022-08-03T16:37:51.843Z,32.98
2022-08-03T16:40:25.581Z,33.03
2022-08-03T16:42:53.558Z,32.71
2022-08-03T16:45:21.653Z,32.43
2022-08-03T16:48:01.738Z,32.40
2022-08-03T16:50:35.447Z,32.57
2022-08-03T16:53:09.497Z,32.74
2022-08-03T16:55:49.010Z,32.74
2022-08-03T16:58:34.825Z,32.64
2022-08-03T17:01:22.021Z,32.59
2022-08-03T17:04:02.816Z,32.56
2022-08-03T17:06:36.216Z,32.49
2022-08-03T17:09:12.801Z,32.41
2022-08-03T17:11:46.533Z,32.33
2022-08-03T17:14:17.386Z,32.24
2022-08-03T17:16:53.820Z,32.14
2022-08-03T17:19:25.361Z,32.09
2022-08-03T17:22:16.013Z,32.12
2022-08-03T17:24:51.077Z,32.09
2022-08-03T17:28:48.060Z,32.14
2022-08-03T17:30:15.944Z,31.97
2022-08-03T17:32:52.615Z,31.73
2022-08-03T17:35:34.313Z,31.54
2022-08-03T17:38:08.881Z,31.41
2022-08-03T17:40:48.277Z,31.16
2022-08-03T17:44:14.443Z,30.98
2022-08-03T17:46:10.780Z,30.64
2022-08-03T17:48:41.546Z,30.40
2022-08-03T17:51:30.025Z,30.09
2022-08-03T17:54:21.064Z,29.72
2022-08-03T17:57:01.334Z,29.36
2022-08-03T18:00:23.016Z,29.02
2022-08-03T18:03:15.997Z,28.50
2022-08-03T18:06:12.003Z,28.04
2022-08-03T18:08:43.337Z,27.60
2022-08-03T18:11:16.819Z,27.17
2022-08-03T18:13:57.975Z,26.76
2022-08-03T18:16:37.684Z,26.40
2022-08-03T18:19:09.685Z,26.05
2022-08-03T18:22:03.383Z,25.73
2022-08-03T18:24:31.517Z,25.46
2022-08-03T18:27:02.565Z,25.23
2022-08-03T18:29:31.338Z,24.96
2022-08-03T18:32:05.973Z,24.74
2022-08-03T18:34:41.151Z,24.53
2022-08-03T18:37:26.168Z,24.28
2022-08-03T18:39:58.370Z,24.06
2022-08-03T18:42:28.134Z,23.85
2022-08-03T18:48:11.895Z,23.50
2022-08-03T18:51:09.919Z,23.31
2022-08-03T18:56:50.178Z,22.86
2022-08-03T18:59:38.677Z,22.65
2022-08-03T19:02:09.659Z,22.39
2022-08-03T19:04:46.185Z,22.17
2022-08-03T19:07:23.346Z,22.07
2022-08-03T19:09:55.838Z,22.06
2022-08-03T19:12:37.848Z,22.05
2022-08-03T19:15:10.237Z,22.02
2022-08-03T19:17:53.305Z,21.95
2022-08-03T19:20:28.213Z,21.92
2022-08-03T19:22:57.437Z,21.85
2022-08-03T19:25:34.508Z,21.78
2022-08-03T19:28:07.528Z,21.70
2022-08-03T19:30:39.893Z,21.61
2022-08-03T19:33:14.028Z,21.48
2022-08-03T19:35:55.006Z,21.42
2022-08-03T19:38:28.186Z,21.34
2022-08-03T19:41:02.086Z,21.27
2022-08-03T19:43:53.410Z,21.17
2022-08-03T19:46:30.946Z,21.04
2022-08-03T19:49:14.711Z,21.06
2022-08-03T19:52:00.561Z,21.21
2022-08-03T19:54:53.429Z,21.24
2022-08-03T19:57:25.229Z,21.17
2022-08-03T19:59:55.129Z,21.04
2022-08-03T20:02:26.399Z,20.89
2022-08-03T20:04:57.181Z,20.84
2022-08-03T20:07:26.969Z,20.79
2022-08-03T20:09:56.676Z,20.79
2022-08-03T20:12:28.045Z,20.84
2022-08-03T20:14:58.562Z,20.93
2022-08-03T20:17:54.881Z,20.98
2022-08-03T20:20:24.110Z,21.06
2022-08-03T20:22:57.582Z,21.11
2022-08-03T20:25:38.754Z,21.17
2022-08-03T20:28:14.959Z,21.21
2022-08-03T20:30:47.200Z,21.28
2022-08-03T20:33:18.248Z,21.33
2022-08-03T20:35:49.788Z,21.39
2022-08-03T20:42:28.983Z,21.38
2022-08-03T20:45:04.374Z,21.40
2022-08-03T20:47:35.896Z,21.42
2022-08-03T20:50:04.558Z,21.43
2022-08-03T20:52:49.487Z,21.45
2022-08-03T20:55:47.062Z,21.44
2022-08-03T20:58:07.223Z,21.40
2022-08-03T21:00:35.439Z,21.37
2022-08-03T21:03:03.971Z,21.34
2022-08-03T21:05:51.290Z,21.30
2022-08-03T21:08:22.510Z,21.29
2022-08-03T21:10:59.138Z,21.32
2022-08-03T21:12:59.144Z,23.68
2022-08-03T21:13:09.878Z,23.03
2022-08-03T21:13:27.867Z,21.38
2022-08-03T21:16:11.708Z,21.39
2022-08-03T21:18:52.454Z,21.37
2022-08-03T21:21:22.921Z,21.30
2022-08-03T21:23:53.527Z,21.27
2022-08-03T21:26:26.017Z,21.25
2022-08-03T21:28:56.848Z,21.26
2022-08-03T21:31:26.523Z,21.26
2022-08-03T21:34:00.949Z,21.27
2022-08-03T21:36:34.666Z,21.31
2022-08-03T21:39:05.224Z,21.34
2022-08-03T21:41:33.289Z,21.36
2022-08-03T21:44:02.273Z,21.39
2022-08-03T21:46:35.579Z,21.40
2022-08-03T21:50:07.262Z,21.38
2022-08-03T21:52:05.197Z,21.42
2022-08-03T21:54:38.251Z,21.49
2022-08-03T21:57:13.354Z,21.51
2022-08-03T21:59:48.001Z,21.49
2022-08-03T22:02:24.032Z,21.50
2022-08-03T22:04:56.287Z,21.51
2022-08-03T22:07:27.654Z,21.56
2022-08-03T22:09:56.889Z,21.57
2022-08-03T22:12:27.285Z,21.52
2022-08-03T22:15:00.830Z,21.51
2022-08-03T22:17:55.060Z,21.48
2022-08-03T22:20:21.358Z,21.40
2022-08-03T22:22:56.061Z,21.36
2022-08-03T22:25:30.929Z,21.29
2022-08-03T22:28:01.592Z,21.14
2022-08-03T22:30:29.795Z,21.05
2022-08-03T22:32:59.437Z,21.00
2022-08-03T22:35:28.127Z,20.91
2022-08-03T22:37:58.585Z,20.82
2022-08-03T22:40:27.978Z,20.72
2022-08-03T22:42:56.881Z,20.58
2022-08-03T22:46:06.404Z,20.44
2022-08-03T22:48:18.207Z,20.33
2022-08-03T22:50:47.221Z,20.27
2022-08-03T22:53:21.086Z,20.29
2022-08-03T22:55:50.427Z,20.31
2022-08-03T22:58:23.471Z,20.32
2022-08-03T23:01:12.003Z,20.34
2022-08-03T23:04:00.253Z,20.36
2022-08-03T23:06:36.006Z,20.35
2022-08-03T23:09:07.090Z,20.33
2022-08-03T23:11:45.791Z,20.24
2022-08-03T23:14:16.775Z,20.15
2022-08-03T23:16:46.596Z,20.17
2022-08-03T23:19:24.986Z,20.24
2022-08-03T23:22:03.298Z,20.30
2022-08-03T23:24:38.174Z,20.31
2022-08-03T23:27:08.180Z,20.32
2022-08-03T23:29:38.548Z,20.33
2022-08-03T23:32:07.065Z,20.41
2022-08-03T23:34:57.319Z,20.49
2022-08-03T23:37:26.445Z,20.52
2022-08-03T23:39:57.069Z,20.54
2022-08-03T23:42:26.199Z,20.53
2022-08-03T23:44:59.293Z,20.54
2022-08-03T23:47:46.839Z,20.62
2022-08-03T23:50:16.852Z,20.64
2022-08-03T23:52:53.358Z,20.64
2022-08-03T23:55:36.812Z,20.65
2022-08-03T23:58:38.385Z,20.65
